sensor_id;sensor_type;location;lat;lon;timestamp;temperature;humidity
22578;DHT22;11455;52.390;13.028;2023-07-29T00:01:35;20.30;1.00
22578;DHT22;11455;52.390;13.028;2023-07-29T00:04:13;20.30;1.00
22578;DHT22;11455;52.390;13.028;2023-07-29T00:06:47;20.30;1.00
22578;DHT22;11455;52.390;13.028;2023-07-29T00:09:22;20.30;1.00
22578;DHT22;11455;52.390;13.028;2023-07-29T00:11:47;20.30;1.00
22578;DHT22;11455;52.390;13.028;2023-07-29T00:14:16;20.30;1.00
22578;DHT22;11455;52.390;13.028;2023-07-29T00:16:48;20.30;1.00
22578;DHT22;11455;52.390;13.028;2023-07-29T00:19:17;20.30;1.00
22578;DHT22;11455;52.390;13.028;2023-07-29T00:21:43;20.30;1.00
22578;DHT22;11455;52.390;13.028;2023-07-29T00:24:08;20.20;1.00
22578;DHT22;11455;52.390;13.028;2023-07-29T00:26:34;20.20;1.00
22578;DHT22;11455;52.390;13.028;2023-07-29T00:29:00;20.20;1.00
22578;DHT22;11455;52.390;13.028;2023-07-29T00:31:36;20.20;1.00
22578;DHT22;11455;52.390;13.028;2023-07-29T00:34:02;20.10;1.00
22578;DHT22;11455;52.390;13.028;2023-07-29T00:36:28;20.10;1.00
22578;DHT22;11455;52.390;13.028;2023-07-29T00:38:53;20.10;1.00
22578;DHT22;11455;52.390;13.028;2023-07-29T00:41:25;20.10;1.00
22578;DHT22;11455;52.390;13.028;2023-07-29T00:43:54;20.20;1.00
22578;DHT22;11455;52.390;13.028;2023-07-29T00:46:20;20.20;1.00
22578;DHT22;11455;52.390;13.028;2023-07-29T00:48:46;20.20;1.00
22578;DHT22;11455;52.390;13.028;2023-07-29T00:51:13;20.20;1.00
22578;DHT22;11455;52.390;13.028;2023-07-29T00:53:39;20.20;1.00
22578;DHT22;11455;52.390;13.028;2023-07-29T00:56:06;20.20;1.00
22578;DHT22;11455;52.390;13.028;2023-07-29T00:58:33;20.10;1.00
22578;DHT22;11455;52.390;13.028;2023-07-29T01:00:59;20.10;1.00
22578;DHT22;11455;52.390;13.028;2023-07-29T01:03:27;20.10;1.00
22578;DHT22;11455;52.390;13.028;2023-07-29T01:09:14;20.10;1.00
22578;DHT22;11455;52.390;13.028;2023-07-29T01:12:01;20.10;1.00
22578;DHT22;11455;52.390;13.028;2023-07-29T01:14:42;20.00;1.00
22578;DHT22;11455;52.390;13.028;2023-07-29T01:17:20;20.00;1.00
22578;DHT22;11455;52.390;13.028;2023-07-29T01:20:25;20.00;1.00
22578;DHT22;11455;52.390;13.028;2023-07-29T01:22:53;20.00;1.00
22578;DHT22;11455;52.390;13.028;2023-07-29T01:25:20;19.90;1.00
22578;DHT22;11455;52.390;13.028;2023-07-29T01:27:46;19.80;1.00
22578;DHT22;11455;52.390;13.028;2023-07-29T01:30:13;19.80;1.00
22578;DHT22;11455;52.390;13.028;2023-07-29T01:36:03;19.80;1.00
22578;DHT22;11455;52.390;13.028;2023-07-29T01:38:36;19.80;1.00
22578;DHT22;11455;52.390;13.028;2023-07-29T01:41:07;19.80;1.00
22578;DHT22;11455;52.390;13.028;2023-07-29T01:43:33;19.80;1.00
22578;DHT22;11455;52.390;13.028;2023-07-29T01:46:07;19.70;1.00
22578;DHT22;11455;52.390;13.028;2023-07-29T01:48:33;19.60;1.00
22578;DHT22;11455;52.390;13.028;2023-07-29T01:51:05;19.60;1.00
22578;DHT22;11455;52.390;13.028;2023-07-29T01:53:31;19.50;1.00
22578;DHT22;11455;52.390;13.028;2023-07-29T01:55:57;19.40;1.00
22578;DHT22;11455;52.390;13.028;2023-07-29T01:58:24;19.40;1.00
22578;DHT22;11455;52.390;13.028;2023-07-29T02:00:50;19.40;1.00
22578;DHT22;11455;52.390;13.028;2023-07-29T02:03:15;19.30;1.00
22578;DHT22;11455;52.390;13.028;2023-07-29T02:05:41;19.30;1.00
22578;DHT22;11455;52.390;13.028;2023-07-29T02:08:10;19.30;1.00
22578;DHT22;11455;52.390;13.028;2023-07-29T02:10:37;19.40;1.00
22578;DHT22;11455;52.390;13.028;2023-07-29T02:13:05;19.30;1.00
22578;DHT22;11455;52.390;13.028;2023-07-29T02:15:31;19.40;1.00
22578;DHT22;11455;52.390;13.028;2023-07-29T02:17:57;19.30;1.00
22578;DHT22;11455;52.390;13.028;2023-07-29T02:20:24;19.40;1.00
22578;DHT22;11455;52.390;13.028;2023-07-29T02:22:51;19.40;1.00
22578;DHT22;11455;52.390;13.028;2023-07-29T02:25:16;19.40;1.00
22578;DHT22;11455;52.390;13.028;2023-07-29T02:27:42;19.50;1.00
22578;DHT22;11455;52.390;13.028;2023-07-29T02:30:08;19.50;1.00
22578;DHT22;11455;52.390;13.028;2023-07-29T02:32:35;19.50;1.00
22578;DHT22;11455;52.390;13.028;2023-07-29T02:35:01;19.50;1.00
22578;DHT22;11455;52.390;13.028;2023-07-29T02:37:27;19.50;1.00
22578;DHT22;11455;52.390;13.028;2023-07-29T02:39:53;19.50;1.00
22578;DHT22;11455;52.390;13.028;2023-07-29T02:42:19;19.50;1.00
22578;DHT22;11455;52.390;13.028;2023-07-29T02:44:47;19.60;1.00
22578;DHT22;11455;52.390;13.028;2023-07-29T02:47:15;19.50;1.00
22578;DHT22;11455;52.390;13.028;2023-07-29T02:49:40;19.60;1.00
22578;DHT22;11455;52.390;13.028;2023-07-29T02:52:10;19.60;1.00
22578;DHT22;11455;52.390;13.028;2023-07-29T02:54:38;19.60;1.00
22578;DHT22;11455;52.390;13.028;2023-07-29T02:57:07;19.60;1.00
22578;DHT22;11455;52.390;13.028;2023-07-29T02:59:35;19.70;1.00
22578;DHT22;11455;52.390;13.028;2023-07-29T03:02:06;19.70;1.00
22578;DHT22;11455;52.390;13.028;2023-07-29T03:04:32;19.70;1.00
22578;DHT22;11455;52.390;13.028;2023-07-29T03:06:58;19.70;1.00
22578;DHT22;11455;52.390;13.028;2023-07-29T03:09:25;19.70;1.00
22578;DHT22;11455;52.390;13.028;2023-07-29T03:11:50;19.70;1.00
22578;DHT22;11455;52.390;13.028;2023-07-29T03:14:18;19.70;1.00
22578;DHT22;11455;52.390;13.028;2023-07-29T03:16:46;19.70;1.00
22578;DHT22;11455;52.390;13.028;2023-07-29T03:19:12;19.70;1.00
22578;DHT22;11455;52.390;13.028;2023-07-29T03:21:38;19.70;1.00
22578;DHT22;11455;52.390;13.028;2023-07-29T03:24:04;19.70;1.00
22578;DHT22;11455;52.390;13.028;2023-07-29T03:26:30;19.70;1.00
22578;DHT22;11455;52.390;13.028;2023-07-29T03:28:55;19.70;1.00
22578;DHT22;11455;52.390;13.028;2023-07-29T03:31:24;19.70;1.00
22578;DHT22;11455;52.390;13.028;2023-07-29T03:33:55;19.70;1.00
22578;DHT22;11455;52.390;13.028;2023-07-29T03:36:21;19.70;1.00
22578;DHT22;11455;52.390;13.028;2023-07-29T03:38:47;19.70;1.00
22578;DHT22;11455;52.390;13.028;2023-07-29T03:41:13;19.70;1.00
22578;DHT22;11455;52.390;13.028;2023-07-29T03:43:38;19.80;1.00
22578;DHT22;11455;52.390;13.028;2023-07-29T03:46:04;19.80;1.00
22578;DHT22;11455;52.390;13.028;2023-07-29T03:48:32;19.80;1.00
22578;DHT22;11455;52.390;13.028;2023-07-29T03:50:57;19.80;1.00
22578;DHT22;11455;52.390;13.028;2023-07-29T03:53:23;19.80;1.00
22578;DHT22;11455;52.390;13.028;2023-07-29T03:55:49;19.80;1.00
22578;DHT22;11455;52.390;13.028;2023-07-29T03:58:15;19.80;1.00
22578;DHT22;11455;52.390;13.028;2023-07-29T04:00:41;19.80;1.00
22578;DHT22;11455;52.390;13.028;2023-07-29T04:03:08;19.80;1.00
22578;DHT22;11455;52.390;13.028;2023-07-29T04:05:34;19.80;1.00
22578;DHT22;11455;52.390;13.028;2023-07-29T04:08:00;19.80;1.00
22578;DHT22;11455;52.390;13.028;2023-07-29T04:10:25;19.80;1.00
22578;DHT22;11455;52.390;13.028;2023-07-29T04:12:51;19.90;1.00
22578;DHT22;11455;52.390;13.028;2023-07-29T04:15:17;19.90;1.00
22578;DHT22;11455;52.390;13.028;2023-07-29T04:17:43;19.80;1.00
22578;DHT22;11455;52.390;13.028;2023-07-29T04:20:11;19.80;1.00
22578;DHT22;11455;52.390;13.028;2023-07-29T04:22:40;19.80;1.00
22578;DHT22;11455;52.390;13.028;2023-07-29T04:25:09;19.90;1.00
22578;DHT22;11455;52.390;13.028;2023-07-29T04:27:35;19.90;1.00
22578;DHT22;11455;52.390;13.028;2023-07-29T04:30:03;19.90;1.00
22578;DHT22;11455;52.390;13.028;2023-07-29T04:32:32;19.90;1.00
22578;DHT22;11455;52.390;13.028;2023-07-29T04:34:57;19.90;1.00
22578;DHT22;11455;52.390;13.028;2023-07-29T04:37:23;20.00;1.00
22578;DHT22;11455;52.390;13.028;2023-07-29T04:39:49;20.00;1.00
22578;DHT22;11455;52.390;13.028;2023-07-29T04:42:15;20.00;1.00
22578;DHT22;11455;52.390;13.028;2023-07-29T04:44:45;20.00;1.00
22578;DHT22;11455;52.390;13.028;2023-07-29T04:47:11;19.90;1.00
22578;DHT22;11455;52.390;13.028;2023-07-29T04:49:37;20.00;1.00
22578;DHT22;11455;52.390;13.028;2023-07-29T04:52:06;19.90;1.00
22578;DHT22;11455;52.390;13.028;2023-07-29T04:54:35;19.90;1.00
22578;DHT22;11455;52.390;13.028;2023-07-29T04:57:00;20.00;1.00
22578;DHT22;11455;52.390;13.028;2023-07-29T04:59:27;20.10;1.00
22578;DHT22;11455;52.390;13.028;2023-07-29T05:01:52;20.10;1.00
22578;DHT22;11455;52.390;13.028;2023-07-29T05:04:18;20.10;1.00
22578;DHT22;11455;52.390;13.028;2023-07-29T05:06:46;20.10;1.00
22578;DHT22;11455;52.390;13.028;2023-07-29T05:09:17;20.10;1.00
22578;DHT22;11455;52.390;13.028;2023-07-29T05:11:43;20.00;1.00
22578;DHT22;11455;52.390;13.028;2023-07-29T05:14:17;20.00;1.00
22578;DHT22;11455;52.390;13.028;2023-07-29T05:16:43;20.00;1.00
22578;DHT22;11455;52.390;13.028;2023-07-29T05:19:09;20.10;1.00
22578;DHT22;11455;52.390;13.028;2023-07-29T05:21:35;20.00;1.00
22578;DHT22;11455;52.390;13.028;2023-07-29T05:24:03;19.90;1.00
22578;DHT22;11455;52.390;13.028;2023-07-29T05:26:29;20.00;1.00
22578;DHT22;11455;52.390;13.028;2023-07-29T05:28:55;20.00;1.00
22578;DHT22;11455;52.390;13.028;2023-07-29T05:31:22;20.10;1.00
22578;DHT22;11455;52.390;13.028;2023-07-29T05:33:48;20.10;1.00
22578;DHT22;11455;52.390;13.028;2023-07-29T05:36:14;20.20;1.00
22578;DHT22;11455;52.390;13.028;2023-07-29T05:38:43;20.20;1.00
22578;DHT22;11455;52.390;13.028;2023-07-29T05:41:09;20.10;1.00
22578;DHT22;11455;52.390;13.028;2023-07-29T05:43:37;20.20;1.00
22578;DHT22;11455;52.390;13.028;2023-07-29T05:46:03;20.20;1.00
22578;DHT22;11455;52.390;13.028;2023-07-29T05:48:29;20.20;1.00
22578;DHT22;11455;52.390;13.028;2023-07-29T05:50:58;20.30;1.00
22578;DHT22;11455;52.390;13.028;2023-07-29T05:53:28;20.40;1.00
22578;DHT22;11455;52.390;13.028;2023-07-29T05:55:54;20.30;1.00
22578;DHT22;11455;52.390;13.028;2023-07-29T05:58:35;20.30;1.00
22578;DHT22;11455;52.390;13.028;2023-07-29T06:01:02;20.30;1.00
22578;DHT22;11455;52.390;13.028;2023-07-29T06:03:33;20.30;1.00
22578;DHT22;11455;52.390;13.028;2023-07-29T06:06:18;20.30;1.00
22578;DHT22;11455;52.390;13.028;2023-07-29T06:08:54;20.30;1.00
22578;DHT22;11455;52.390;13.028;2023-07-29T06:11:26;20.30;1.00
22578;DHT22;11455;52.390;13.028;2023-07-29T06:13:52;20.30;1.00
22578;DHT22;11455;52.390;13.028;2023-07-29T06:16:24;20.30;1.00
22578;DHT22;11455;52.390;13.028;2023-07-29T06:18:50;20.40;1.00
22578;DHT22;11455;52.390;13.028;2023-07-29T06:21:18;20.30;1.00
22578;DHT22;11455;52.390;13.028;2023-07-29T06:23:46;20.20;1.00
22578;DHT22;11455;52.390;13.028;2023-07-29T06:26:12;20.30;1.00
22578;DHT22;11455;52.390;13.028;2023-07-29T06:28:37;20.30;1.00
22578;DHT22;11455;52.390;13.028;2023-07-29T06:31:03;20.30;1.00
22578;DHT22;11455;52.390;13.028;2023-07-29T06:33:29;20.30;1.00
22578;DHT22;11455;52.390;13.028;2023-07-29T06:35:55;20.30;1.00
22578;DHT22;11455;52.390;13.028;2023-07-29T06:38:21;20.40;1.00
22578;DHT22;11455;52.390;13.028;2023-07-29T06:40:48;20.50;1.00
22578;DHT22;11455;52.390;13.028;2023-07-29T06:43:14;20.60;1.00
22578;DHT22;11455;52.390;13.028;2023-07-29T06:45:40;20.60;1.00
22578;DHT22;11455;52.390;13.028;2023-07-29T06:48:06;20.70;1.00
22578;DHT22;11455;52.390;13.028;2023-07-29T06:50:31;20.70;1.00
22578;DHT22;11455;52.390;13.028;2023-07-29T06:53:00;20.80;1.00
22578;DHT22;11455;52.390;13.028;2023-07-29T06:55:28;20.90;1.00
22578;DHT22;11455;52.390;13.028;2023-07-29T06:57:59;20.90;1.00
22578;DHT22;11455;52.390;13.028;2023-07-29T07:00:25;21.00;1.00
22578;DHT22;11455;52.390;13.028;2023-07-29T07:02:53;21.00;1.00
22578;DHT22;11455;52.390;13.028;2023-07-29T07:05:19;21.10;1.00
22578;DHT22;11455;52.390;13.028;2023-07-29T07:07:45;21.10;1.00
22578;DHT22;11455;52.390;13.028;2023-07-29T07:10:11;21.10;1.00
22578;DHT22;11455;52.390;13.028;2023-07-29T07:12:37;21.10;1.00
22578;DHT22;11455;52.390;13.028;2023-07-29T07:15:03;21.20;1.00
22578;DHT22;11455;52.390;13.028;2023-07-29T07:17:31;21.30;1.00
22578;DHT22;11455;52.390;13.028;2023-07-29T07:19:57;21.20;1.00
22578;DHT22;11455;52.390;13.028;2023-07-29T07:22:23;21.30;1.00
22578;DHT22;11455;52.390;13.028;2023-07-29T07:24:49;21.40;1.00
22578;DHT22;11455;52.390;13.028;2023-07-29T07:27:15;21.50;1.00
22578;DHT22;11455;52.390;13.028;2023-07-29T07:29:40;21.60;1.00
22578;DHT22;11455;52.390;13.028;2023-07-29T07:32:08;21.50;1.00
22578;DHT22;11455;52.390;13.028;2023-07-29T07:34:34;21.50;1.00
22578;DHT22;11455;52.390;13.028;2023-07-29T07:37:00;21.60;1.00
22578;DHT22;11455;52.390;13.028;2023-07-29T07:39:26;21.60;1.00
22578;DHT22;11455;52.390;13.028;2023-07-29T07:41:52;21.70;1.00
22578;DHT22;11455;52.390;13.028;2023-07-29T07:44:18;21.70;1.00
22578;DHT22;11455;52.390;13.028;2023-07-29T07:46:50;21.60;1.00
22578;DHT22;11455;52.390;13.028;2023-07-29T07:49:19;21.60;1.00
22578;DHT22;11455;52.390;13.028;2023-07-29T07:51:45;21.60;1.00
22578;DHT22;11455;52.390;13.028;2023-07-29T07:54:13;21.60;1.00
22578;DHT22;11455;52.390;13.028;2023-07-29T07:56:39;21.80;1.00
22578;DHT22;11455;52.390;13.028;2023-07-29T07:59:05;21.80;1.00
22578;DHT22;11455;52.390;13.028;2023-07-29T08:01:40;21.80;1.00
22578;DHT22;11455;52.390;13.028;2023-07-29T08:04:06;21.90;1.00
22578;DHT22;11455;52.390;13.028;2023-07-29T08:06:32;21.90;1.00
22578;DHT22;11455;52.390;13.028;2023-07-29T08:09:04;21.90;1.00
22578;DHT22;11455;52.390;13.028;2023-07-29T08:11:30;22.10;1.00
22578;DHT22;11455;52.390;13.028;2023-07-29T08:13:58;22.10;1.00
22578;DHT22;11455;52.390;13.028;2023-07-29T08:16:24;22.10;1.00
22578;DHT22;11455;52.390;13.028;2023-07-29T08:18:52;22.10;1.00
22578;DHT22;11455;52.390;13.028;2023-07-29T08:21:18;22.20;1.00
22578;DHT22;11455;52.390;13.028;2023-07-29T08:23:45;22.20;1.00
22578;DHT22;11455;52.390;13.028;2023-07-29T08:26:11;22.20;1.00
22578;DHT22;11455;52.390;13.028;2023-07-29T08:28:39;22.10;1.00
22578;DHT22;11455;52.390;13.028;2023-07-29T08:31:06;22.10;1.00
22578;DHT22;11455;52.390;13.028;2023-07-29T08:33:32;22.20;1.00
22578;DHT22;11455;52.390;13.028;2023-07-29T08:36:02;22.20;1.00
22578;DHT22;11455;52.390;13.028;2023-07-29T08:38:28;22.30;1.00
22578;DHT22;11455;52.390;13.028;2023-07-29T08:41:24;22.30;1.00
22578;DHT22;11455;52.390;13.028;2023-07-29T08:43:57;22.30;1.00
22578;DHT22;11455;52.390;13.028;2023-07-29T08:46:24;22.30;1.00
22578;DHT22;11455;52.390;13.028;2023-07-29T08:48:51;22.30;1.00
22578;DHT22;11455;52.390;13.028;2023-07-29T08:51:23;22.40;1.00
22578;DHT22;11455;52.390;13.028;2023-07-29T08:53:49;22.40;1.00
22578;DHT22;11455;52.390;13.028;2023-07-29T08:56:15;22.50;1.00
22578;DHT22;11455;52.390;13.028;2023-07-29T08:58:46;22.60;1.00
22578;DHT22;11455;52.390;13.028;2023-07-29T09:01:15;22.60;1.00
22578;DHT22;11455;52.390;13.028;2023-07-29T09:03:41;22.70;1.00
22578;DHT22;11455;52.390;13.028;2023-07-29T09:06:08;22.80;1.00
22578;DHT22;11455;52.390;13.028;2023-07-29T09:08:34;22.80;99.90
22578;DHT22;11455;52.390;13.028;2023-07-29T09:11:00;22.90;1.00
22578;DHT22;11455;52.390;13.028;2023-07-29T09:13:26;23.00;99.90
22578;DHT22;11455;52.390;13.028;2023-07-29T09:16:00;23.00;99.90
22578;DHT22;11455;52.390;13.028;2023-07-29T09:18:26;23.00;99.90
22578;DHT22;11455;52.390;13.028;2023-07-29T09:20:58;23.00;99.90
22578;DHT22;11455;52.390;13.028;2023-07-29T09:23:26;23.00;99.90
22578;DHT22;11455;52.390;13.028;2023-07-29T09:26:03;22.90;99.90
22578;DHT22;11455;52.390;13.028;2023-07-29T09:28:36;23.00;99.90
22578;DHT22;11455;52.390;13.028;2023-07-29T09:31:02;23.00;99.90
22578;DHT22;11455;52.390;13.028;2023-07-29T09:33:33;23.00;99.90
22578;DHT22;11455;52.390;13.028;2023-07-29T09:36:08;23.00;99.90
22578;DHT22;11455;52.390;13.028;2023-07-29T09:38:37;23.00;99.90
22578;DHT22;11455;52.390;13.028;2023-07-29T09:41:03;23.10;99.90
22578;DHT22;11455;52.390;13.028;2023-07-29T09:43:30;23.20;99.90
22578;DHT22;11455;52.390;13.028;2023-07-29T09:46:03;23.20;99.90
22578;DHT22;11455;52.390;13.028;2023-07-29T09:48:36;23.20;99.90
22578;DHT22;11455;52.390;13.028;2023-07-29T09:51:12;23.10;99.90
22578;DHT22;11455;52.390;13.028;2023-07-29T09:53:57;23.10;99.90
22578;DHT22;11455;52.390;13.028;2023-07-29T09:56:29;23.10;99.90
22578;DHT22;11455;52.390;13.028;2023-07-29T09:58:58;23.00;99.90
22578;DHT22;11455;52.390;13.028;2023-07-29T10:01:24;23.00;99.90
22578;DHT22;11455;52.390;13.028;2023-07-29T10:03:50;23.00;99.90
22578;DHT22;11455;52.390;13.028;2023-07-29T10:06:17;23.00;99.90
22578;DHT22;11455;52.390;13.028;2023-07-29T10:08:52;23.10;99.90
22578;DHT22;11455;52.390;13.028;2023-07-29T10:11:21;23.10;99.90
22578;DHT22;11455;52.390;13.028;2023-07-29T10:13:48;23.20;99.90
22578;DHT22;11455;52.390;13.028;2023-07-29T10:16:15;23.20;99.90
22578;DHT22;11455;52.390;13.028;2023-07-29T10:18:41;23.20;99.90
22578;DHT22;11455;52.390;13.028;2023-07-29T10:21:08;23.20;99.90
22578;DHT22;11455;52.390;13.028;2023-07-29T10:23:42;23.20;99.90
22578;DHT22;11455;52.390;13.028;2023-07-29T10:26:10;23.20;99.90
22578;DHT22;11455;52.390;13.028;2023-07-29T10:28:47;23.20;99.90
22578;DHT22;11455;52.390;13.028;2023-07-29T10:31:16;23.20;99.90
22578;DHT22;11455;52.390;13.028;2023-07-29T10:33:43;23.20;99.90
22578;DHT22;11455;52.390;13.028;2023-07-29T10:36:10;23.20;99.90
22578;DHT22;11455;52.390;13.028;2023-07-29T10:38:36;23.20;99.90
22578;DHT22;11455;52.390;13.028;2023-07-29T10:41:02;23.00;99.90
22578;DHT22;11455;52.390;13.028;2023-07-29T10:43:35;23.00;1.00
22578;DHT22;11455;52.390;13.028;2023-07-29T10:46:18;22.80;1.00
22578;DHT22;11455;52.390;13.028;2023-07-29T10:48:54;22.60;1.00
22578;DHT22;11455;52.390;13.028;2023-07-29T10:51:31;22.40;1.00
22578;DHT22;11455;52.390;13.028;2023-07-29T10:56:33;21.90;1.00
22578;DHT22;11455;52.390;13.028;2023-07-29T11:01:57;21.90;1.00
22578;DHT22;11455;52.390;13.028;2023-07-29T11:04:30;22.00;1.00
22578;DHT22;11455;52.390;13.028;2023-07-29T11:10:02;22.20;1.00
22578;DHT22;11455;52.390;13.028;2023-07-29T11:17:34;22.20;1.00
22578;DHT22;11455;52.390;13.028;2023-07-29T11:20:03;22.30;1.00
22578;DHT22;11455;52.390;13.028;2023-07-29T11:22:35;22.20;1.00
22578;DHT22;11455;52.390;13.028;2023-07-29T11:25:02;22.10;1.00
22578;DHT22;11455;52.390;13.028;2023-07-29T11:27:28;22.10;1.00
22578;DHT22;11455;52.390;13.028;2023-07-29T11:30:02;22.00;1.00
22578;DHT22;11455;52.390;13.028;2023-07-29T11:32:28;22.00;1.00
22578;DHT22;11455;52.390;13.028;2023-07-29T11:37:49;22.00;1.00
22578;DHT22;11455;52.390;13.028;2023-07-29T11:40:22;21.90;1.00
22578;DHT22;11455;52.390;13.028;2023-07-29T11:42:56;21.80;1.00
22578;DHT22;11455;52.390;13.028;2023-07-29T11:45:29;21.80;1.00
22578;DHT22;11455;52.390;13.028;2023-07-29T11:48:04;21.80;1.00
22578;DHT22;11455;52.390;13.028;2023-07-29T11:50:36;21.70;1.00
22578;DHT22;11455;52.390;13.028;2023-07-29T11:53:09;21.60;1.00
22578;DHT22;11455;52.390;13.028;2023-07-29T11:55:41;21.60;1.00
22578;DHT22;11455;52.390;13.028;2023-07-29T11:58:15;21.60;1.00
22578;DHT22;11455;52.390;13.028;2023-07-29T12:00:48;21.70;1.00
22578;DHT22;11455;52.390;13.028;2023-07-29T12:03:21;21.80;1.00
22578;DHT22;11455;52.390;13.028;2023-07-29T12:05:54;21.80;1.00
22578;DHT22;11455;52.390;13.028;2023-07-29T12:08:27;21.90;1.00
22578;DHT22;11455;52.390;13.028;2023-07-29T12:10:59;22.00;1.00
22578;DHT22;11455;52.390;13.028;2023-07-29T12:13:31;22.00;1.00
22578;DHT22;11455;52.390;13.028;2023-07-29T12:16:04;22.10;1.00
22578;DHT22;11455;52.390;13.028;2023-07-29T12:18:47;22.10;1.00
22578;DHT22;11455;52.390;13.028;2023-07-29T12:21:22;22.10;1.00
22578;DHT22;11455;52.390;13.028;2023-07-29T12:24:02;22.20;1.00
22578;DHT22;11455;52.390;13.028;2023-07-29T12:26:37;22.20;1.00
22578;DHT22;11455;52.390;13.028;2023-07-29T12:29:14;22.20;1.00
22578;DHT22;11455;52.390;13.028;2023-07-29T12:31:47;22.30;1.00
22578;DHT22;11455;52.390;13.028;2023-07-29T12:34:20;22.30;1.00
22578;DHT22;11455;52.390;13.028;2023-07-29T12:36:53;22.30;1.00
22578;DHT22;11455;52.390;13.028;2023-07-29T12:39:31;22.30;1.00
22578;DHT22;11455;52.390;13.028;2023-07-29T12:42:04;22.30;1.00
22578;DHT22;11455;52.390;13.028;2023-07-29T12:44:38;22.20;1.00
22578;DHT22;11455;52.390;13.028;2023-07-29T12:47:13;22.10;1.00
22578;DHT22;11455;52.390;13.028;2023-07-29T12:49:46;22.10;1.00
22578;DHT22;11455;52.390;13.028;2023-07-29T12:52:17;22.10;1.00
22578;DHT22;11455;52.390;13.028;2023-07-29T12:54:52;22.10;1.00
22578;DHT22;11455;52.390;13.028;2023-07-29T12:57:23;22.20;1.00
22578;DHT22;11455;52.390;13.028;2023-07-29T12:59:55;22.50;1.00
22578;DHT22;11455;52.390;13.028;2023-07-29T13:02:27;22.60;1.00
22578;DHT22;11455;52.390;13.028;2023-07-29T13:04:59;22.90;1.00
22578;DHT22;11455;52.390;13.028;2023-07-29T13:07:31;23.10;1.00
22578;DHT22;11455;52.390;13.028;2023-07-29T13:10:04;23.20;1.00
22578;DHT22;11455;52.390;13.028;2023-07-29T13:12:39;23.20;1.00
22578;DHT22;11455;52.390;13.028;2023-07-29T13:15:19;23.30;1.00
22578;DHT22;11455;52.390;13.028;2023-07-29T13:17:47;23.50;1.00
22578;DHT22;11455;52.390;13.028;2023-07-29T13:20:22;23.50;1.00
22578;DHT22;11455;52.390;13.028;2023-07-29T13:22:48;23.50;1.00
22578;DHT22;11455;52.390;13.028;2023-07-29T13:25:27;23.60;1.00
22578;DHT22;11455;52.390;13.028;2023-07-29T13:28:00;23.50;1.00
22578;DHT22;11455;52.390;13.028;2023-07-29T13:30:32;23.40;1.00
22578;DHT22;11455;52.390;13.028;2023-07-29T13:32:58;23.40;1.00
22578;DHT22;11455;52.390;13.028;2023-07-29T13:35:32;23.40;1.00
22578;DHT22;11455;52.390;13.028;2023-07-29T13:38:04;23.30;1.00
22578;DHT22;11455;52.390;13.028;2023-07-29T13:40:36;23.30;1.00
22578;DHT22;11455;52.390;13.028;2023-07-29T13:43:09;23.20;1.00
22578;DHT22;11455;52.390;13.028;2023-07-29T13:45:43;23.20;1.00
22578;DHT22;11455;52.390;13.028;2023-07-29T13:48:27;23.40;1.00
22578;DHT22;11455;52.390;13.028;2023-07-29T13:50:58;23.50;1.00
22578;DHT22;11455;52.390;13.028;2023-07-29T13:53:31;23.70;1.00
22578;DHT22;11455;52.390;13.028;2023-07-29T13:56:04;23.90;1.00
22578;DHT22;11455;52.390;13.028;2023-07-29T13:58:36;23.90;1.00
22578;DHT22;11455;52.390;13.028;2023-07-29T14:01:12;24.00;1.00
22578;DHT22;11455;52.390;13.028;2023-07-29T14:03:46;24.00;1.00
22578;DHT22;11455;52.390;13.028;2023-07-29T14:06:22;23.90;1.00
22578;DHT22;11455;52.390;13.028;2023-07-29T14:08:59;23.90;1.00
22578;DHT22;11455;52.390;13.028;2023-07-29T14:11:31;23.80;1.00
22578;DHT22;11455;52.390;13.028;2023-07-29T14:14:02;23.80;1.00
22578;DHT22;11455;52.390;13.028;2023-07-29T14:16:39;24.00;1.00
22578;DHT22;11455;52.390;13.028;2023-07-29T14:19:15;24.10;99.90
22578;DHT22;11455;52.390;13.028;2023-07-29T14:21:49;24.10;99.90
22578;DHT22;11455;52.390;13.028;2023-07-29T14:24:22;24.10;99.90
22578;DHT22;11455;52.390;13.028;2023-07-29T14:27:00;24.30;99.90
22578;DHT22;11455;52.390;13.028;2023-07-29T14:29:35;24.20;99.90
22578;DHT22;11455;52.390;13.028;2023-07-29T14:32:07;24.20;99.90
22578;DHT22;11455;52.390;13.028;2023-07-29T14:34:38;24.20;99.90
22578;DHT22;11455;52.390;13.028;2023-07-29T14:37:11;24.30;99.90
22578;DHT22;11455;52.390;13.028;2023-07-29T14:39:43;24.50;99.90
22578;DHT22;11455;52.390;13.028;2023-07-29T14:42:15;24.40;99.90
22578;DHT22;11455;52.390;13.028;2023-07-29T14:44:47;24.30;99.90
22578;DHT22;11455;52.390;13.028;2023-07-29T14:47:18;24.20;99.90
22578;DHT22;11455;52.390;13.028;2023-07-29T14:49:51;24.20;99.90
22578;DHT22;11455;52.390;13.028;2023-07-29T14:52:22;24.10;99.90
22578;DHT22;11455;52.390;13.028;2023-07-29T14:54:54;24.00;99.90
22578;DHT22;11455;52.390;13.028;2023-07-29T14:57:27;24.00;99.90
22578;DHT22;11455;52.390;13.028;2023-07-29T14:59:58;23.90;99.90
22578;DHT22;11455;52.390;13.028;2023-07-29T15:02:31;23.90;99.90
22578;DHT22;11455;52.390;13.028;2023-07-29T15:05:06;23.90;99.90
22578;DHT22;11455;52.390;13.028;2023-07-29T15:07:39;23.80;99.90
22578;DHT22;11455;52.390;13.028;2023-07-29T15:10:14;23.70;99.90
22578;DHT22;11455;52.390;13.028;2023-07-29T15:12:48;23.50;99.90
22578;DHT22;11455;52.390;13.028;2023-07-29T15:15:20;23.50;99.90
22578;DHT22;11455;52.390;13.028;2023-07-29T15:17:52;23.20;1.00
22578;DHT22;11455;52.390;13.028;2023-07-29T15:20:24;22.60;99.90
22578;DHT22;11455;52.390;13.028;2023-07-29T15:22:58;22.10;99.90
22578;DHT22;11455;52.390;13.028;2023-07-29T15:25:30;21.60;1.00
22578;DHT22;11455;52.390;13.028;2023-07-29T15:28:03;21.40;1.00
22578;DHT22;11455;52.390;13.028;2023-07-29T15:30:37;21.30;1.00
22578;DHT22;11455;52.390;13.028;2023-07-29T15:33:10;21.40;1.00
22578;DHT22;11455;52.390;13.028;2023-07-29T15:35:42;21.40;1.00
22578;DHT22;11455;52.390;13.028;2023-07-29T15:38:14;21.50;1.00
22578;DHT22;11455;52.390;13.028;2023-07-29T15:40:46;21.60;1.00
22578;DHT22;11455;52.390;13.028;2023-07-29T15:43:21;21.50;1.00
22578;DHT22;11455;52.390;13.028;2023-07-29T15:45:53;21.50;1.00
22578;DHT22;11455;52.390;13.028;2023-07-29T15:48:25;21.60;1.00
22578;DHT22;11455;52.390;13.028;2023-07-29T15:50:57;21.80;1.00
22578;DHT22;11455;52.390;13.028;2023-07-29T15:53:30;21.90;1.00
22578;DHT22;11455;52.390;13.028;2023-07-29T15:55:55;22.20;1.00
22578;DHT22;11455;52.390;13.028;2023-07-29T15:58:28;22.40;1.00
22578;DHT22;11455;52.390;13.028;2023-07-29T16:01:00;22.40;1.00
22578;DHT22;11455;52.390;13.028;2023-07-29T16:03:32;22.30;1.00
22578;DHT22;11455;52.390;13.028;2023-07-29T16:06:04;22.40;1.00